sensor_id;sensor_type;location;lat;lon;timestamp;P1;durP1;ratioP1;P2;durP2;ratioP2
2289;SDS011;1153;47.986;7.898;2023-04-03T00:00:21;3.60;;;3.40;;
2289;SDS011;1153;47.986;7.898;2023-04-03T00:02:46;3.10;;;2.90;;
2289;SDS011;1153;47.986;7.898;2023-04-03T00:05:12;3.90;;;3.70;;
2289;SDS011;1153;47.986;7.898;2023-04-03T00:07:37;3.63;;;3.43;;
2289;SDS011;1153;47.986;7.898;2023-04-03T00:10:02;4.17;;;3.97;;
2289;SDS011;1153;47.986;7.898;2023-04-03T00:12:27;6.80;;;4.63;;
2289;SDS011;1153;47.986;7.898;2023-04-03T00:14:52;1.40;;;1.23;;
2289;SDS011;1153;47.986;7.898;2023-04-03T00:17:18;1.20;;;0.80;;
2289;SDS011;1153;47.986;7.898;2023-04-03T00:19:43;1.10;;;0.80;;
2289;SDS011;1153;47.986;7.898;2023-04-03T00:22:08;1.00;;;0.50;;
2289;SDS011;1153;47.986;7.898;2023-04-03T00:24:33;0.90;;;0.57;;
2289;SDS011;1153;47.986;7.898;2023-04-03T00:26:58;1.33;;;0.50;;
2289;SDS011;1153;47.986;7.898;2023-04-03T00:29:24;0.90;;;0.50;;
2289;SDS011;1153;47.986;7.898;2023-04-03T00:31:49;0.90;;;0.50;;
2289;SDS011;1153;47.986;7.898;2023-04-03T00:34:14;1.10;;;0.50;;
2289;SDS011;1153;47.986;7.898;2023-04-03T00:36:40;0.80;;;0.50;;
2289;SDS011;1153;47.986;7.898;2023-04-03T00:39:05;0.70;;;0.40;;
2289;SDS011;1153;47.986;7.898;2023-04-03T00:41:30;0.60;;;0.40;;
2289;SDS011;1153;47.986;7.898;2023-04-03T00:43:56;0.60;;;0.40;;
2289;SDS011;1153;47.986;7.898;2023-04-03T00:46:22;0.70;;;0.50;;
2289;SDS011;1153;47.986;7.898;2023-04-03T00:48:47;0.70;;;0.40;;
2289;SDS011;1153;47.986;7.898;2023-04-03T00:51:34;0.73;;;0.50;;
2289;SDS011;1153;47.986;7.898;2023-04-03T00:53:59;1.00;;;0.60;;
2289;SDS011;1153;47.986;7.898;2023-04-03T00:56:26;0.80;;;0.50;;
2289;SDS011;1153;47.986;7.898;2023-04-03T00:58:54;1.93;;;0.40;;
2289;SDS011;1153;47.986;7.898;2023-04-03T01:01:21;0.60;;;0.40;;
2289;SDS011;1153;47.986;7.898;2023-04-03T01:03:47;0.70;;;0.60;;
2289;SDS011;1153;47.986;7.898;2023-04-03T01:06:13;0.50;;;0.30;;
2289;SDS011;1153;47.986;7.898;2023-04-03T01:08:41;0.77;;;0.40;;
2289;SDS011;1153;47.986;7.898;2023-04-03T01:11:06;0.60;;;0.30;;
2289;SDS011;1153;47.986;7.898;2023-04-03T01:13:32;0.80;;;0.40;;
2289;SDS011;1153;47.986;7.898;2023-04-03T01:16:00;1.37;;;0.37;;
2289;SDS011;1153;47.986;7.898;2023-04-03T01:18:26;0.70;;;0.40;;
2289;SDS011;1153;47.986;7.898;2023-04-03T01:26:03;0.83;;;0.40;;
2289;SDS011;1153;47.986;7.898;2023-04-03T01:28:32;0.90;;;0.50;;
2289;SDS011;1153;47.986;7.898;2023-04-03T01:33:42;0.60;;;0.40;;
2289;SDS011;1153;47.986;7.898;2023-04-03T01:36:07;4.73;;;0.80;;
2289;SDS011;1153;47.986;7.898;2023-04-03T01:38:34;0.80;;;0.40;;
2289;SDS011;1153;47.986;7.898;2023-04-03T01:40:59;0.70;;;0.50;;
2289;SDS011;1153;47.986;7.898;2023-04-03T01:43:24;0.83;;;0.50;;
2289;SDS011;1153;47.986;7.898;2023-04-03T01:45:50;0.97;;;0.50;;
2289;SDS011;1153;47.986;7.898;2023-04-03T01:48:17;0.80;;;0.50;;
2289;SDS011;1153;47.986;7.898;2023-04-03T01:50:42;0.70;;;0.40;;
2289;SDS011;1153;47.986;7.898;2023-04-03T01:53:07;2.60;;;0.80;;
2289;SDS011;1153;47.986;7.898;2023-04-03T01:55:33;0.70;;;0.40;;
2289;SDS011;1153;47.986;7.898;2023-04-03T01:57:58;0.70;;;0.50;;
2289;SDS011;1153;47.986;7.898;2023-04-03T02:00:23;0.80;;;0.40;;
2289;SDS011;1153;47.986;7.898;2023-04-03T02:02:48;0.70;;;0.40;;
2289;SDS011;1153;47.986;7.898;2023-04-03T02:05:14;0.60;;;0.40;;
2289;SDS011;1153;47.986;7.898;2023-04-03T02:07:40;2.30;;;0.60;;
2289;SDS011;1153;47.986;7.898;2023-04-03T02:10:05;0.60;;;0.30;;
2289;SDS011;1153;47.986;7.898;2023-04-03T02:12:30;2.20;;;0.50;;
2289;SDS011;1153;47.986;7.898;2023-04-03T02:14:55;0.80;;;0.40;;
2289;SDS011;1153;47.986;7.898;2023-04-03T02:17:21;1.00;;;0.40;;
2289;SDS011;1153;47.986;7.898;2023-04-03T02:19:46;0.80;;;0.50;;
2289;SDS011;1153;47.986;7.898;2023-04-03T02:22:11;0.87;;;0.50;;
2289;SDS011;1153;47.986;7.898;2023-04-03T02:24:36;0.60;;;0.40;;
2289;SDS011;1153;47.986;7.898;2023-04-03T02:27:03;0.70;;;0.50;;
2289;SDS011;1153;47.986;7.898;2023-04-03T02:29:29;0.80;;;0.40;;
2289;SDS011;1153;47.986;7.898;2023-04-03T02:31:54;0.73;;;0.40;;
2289;SDS011;1153;47.986;7.898;2023-04-03T02:34:19;0.90;;;0.43;;
2289;SDS011;1153;47.986;7.898;2023-04-03T02:36:45;0.60;;;0.40;;
2289;SDS011;1153;47.986;7.898;2023-04-03T02:39:10;0.70;;;0.50;;
2289;SDS011;1153;47.986;7.898;2023-04-03T02:41:36;1.00;;;0.50;;
2289;SDS011;1153;47.986;7.898;2023-04-03T02:44:01;0.80;;;0.40;;
2289;SDS011;1153;47.986;7.898;2023-04-03T02:46:27;0.90;;;0.60;;
2289;SDS011;1153;47.986;7.898;2023-04-03T02:48:52;0.90;;;0.47;;
2289;SDS011;1153;47.986;7.898;2023-04-03T02:51:17;0.77;;;0.43;;
2289;SDS011;1153;47.986;7.898;2023-04-03T02:53:42;0.60;;;0.40;;
2289;SDS011;1153;47.986;7.898;2023-04-03T02:56:08;0.80;;;0.60;;
2289;SDS011;1153;47.986;7.898;2023-04-03T02:58:33;0.63;;;0.47;;
2289;SDS011;1153;47.986;7.898;2023-04-03T03:00:58;0.70;;;0.40;;
2289;SDS011;1153;47.986;7.898;2023-04-03T03:03:23;0.80;;;0.50;;
2289;SDS011;1153;47.986;7.898;2023-04-03T03:05:49;0.67;;;0.50;;
2289;SDS011;1153;47.986;7.898;2023-04-03T03:08:14;0.60;;;0.33;;
2289;SDS011;1153;47.986;7.898;2023-04-03T03:10:39;0.80;;;0.50;;
2289;SDS011;1153;47.986;7.898;2023-04-03T03:13:04;0.90;;;0.50;;
2289;SDS011;1153;47.986;7.898;2023-04-03T03:15:30;1.10;;;0.97;;
2289;SDS011;1153;47.986;7.898;2023-04-03T03:17:55;0.90;;;0.70;;
2289;SDS011;1153;47.986;7.898;2023-04-03T03:20:20;1.40;;;1.30;;
2289;SDS011;1153;47.986;7.898;2023-04-03T03:22:46;1.17;;;1.07;;
2289;SDS011;1153;47.986;7.898;2023-04-03T03:25:11;1.73;;;1.63;;
2289;SDS011;1153;47.986;7.898;2023-04-03T03:27:36;1.37;;;1.27;;
2289;SDS011;1153;47.986;7.898;2023-04-03T03:30:01;1.13;;;1.03;;
2289;SDS011;1153;47.986;7.898;2023-04-03T03:32:26;1.10;;;0.80;;
2289;SDS011;1153;47.986;7.898;2023-04-03T03:34:52;1.23;;;1.13;;
2289;SDS011;1153;47.986;7.898;2023-04-03T03:37:17;1.30;;;1.20;;
2289;SDS011;1153;47.986;7.898;2023-04-03T03:39:42;1.80;;;1.70;;
2289;SDS011;1153;47.986;7.898;2023-04-03T03:42:07;1.50;;;1.40;;
2289;SDS011;1153;47.986;7.898;2023-04-03T03:44:33;1.60;;;0.83;;
2289;SDS011;1153;47.986;7.898;2023-04-03T03:46:58;1.50;;;1.40;;
2289;SDS011;1153;47.986;7.898;2023-04-03T03:49:23;1.43;;;1.33;;
2289;SDS011;1153;47.986;7.898;2023-04-03T03:51:48;1.80;;;1.70;;
2289;SDS011;1153;47.986;7.898;2023-04-03T03:54:14;1.33;;;1.23;;
2289;SDS011;1153;47.986;7.898;2023-04-03T03:56:40;1.43;;;1.30;;
2289;SDS011;1153;47.986;7.898;2023-04-03T03:59:05;1.60;;;1.50;;
2289;SDS011;1153;47.986;7.898;2023-04-03T04:01:31;1.93;;;1.73;;
2289;SDS011;1153;47.986;7.898;2023-04-03T04:03:56;1.83;;;1.27;;
2289;SDS011;1153;47.986;7.898;2023-04-03T04:06:21;2.17;;;1.37;;
2289;SDS011;1153;47.986;7.898;2023-04-03T04:08:46;1.97;;;1.87;;
2289;SDS011;1153;47.986;7.898;2023-04-03T04:11:12;2.53;;;1.70;;
2289;SDS011;1153;47.986;7.898;2023-04-03T04:13:37;2.07;;;1.97;;
2289;SDS011;1153;47.986;7.898;2023-04-03T04:16:02;1.30;;;1.13;;
2289;SDS011;1153;47.986;7.898;2023-04-03T04:18:27;1.53;;;1.43;;
2289;SDS011;1153;47.986;7.898;2023-04-03T04:20:53;1.97;;;1.87;;
2289;SDS011;1153;47.986;7.898;2023-04-03T04:23:18;2.77;;;1.30;;
2289;SDS011;1153;47.986;7.898;2023-04-03T04:25:49;1.30;;;0.90;;
2289;SDS011;1153;47.986;7.898;2023-04-03T04:28:15;1.10;;;1.00;;
2289;SDS011;1153;47.986;7.898;2023-04-03T04:30:40;1.20;;;1.03;;
2289;SDS011;1153;47.986;7.898;2023-04-03T04:33:05;1.53;;;1.43;;
2289;SDS011;1153;47.986;7.898;2023-04-03T04:35:31;1.03;;;0.90;;
2289;SDS011;1153;47.986;7.898;2023-04-03T04:37:57;1.17;;;1.07;;
2289;SDS011;1153;47.986;7.898;2023-04-03T04:40:22;1.20;;;1.03;;
2289;SDS011;1153;47.986;7.898;2023-04-03T04:42:47;1.27;;;0.93;;
2289;SDS011;1153;47.986;7.898;2023-04-03T04:45:12;1.10;;;0.80;;
2289;SDS011;1153;47.986;7.898;2023-04-03T04:47:37;1.17;;;1.07;;
2289;SDS011;1153;47.986;7.898;2023-04-03T04:50:03;1.47;;;0.70;;
2289;SDS011;1153;47.986;7.898;2023-04-03T04:52:28;2.70;;;0.83;;
2289;SDS011;1153;47.986;7.898;2023-04-03T04:54:53;0.80;;;0.60;;
2289;SDS011;1153;47.986;7.898;2023-04-03T04:57:18;0.90;;;0.70;;
2289;SDS011;1153;47.986;7.898;2023-04-03T04:59:43;1.10;;;1.00;;
2289;SDS011;1153;47.986;7.898;2023-04-03T05:02:08;0.87;;;0.70;;
2289;SDS011;1153;47.986;7.898;2023-04-03T05:04:34;1.20;;;1.10;;
2289;SDS011;1153;47.986;7.898;2023-04-03T05:06:59;0.80;;;0.60;;
2289;SDS011;1153;47.986;7.898;2023-04-03T05:09:24;1.17;;;0.90;;
2289;SDS011;1153;47.986;7.898;2023-04-03T05:11:50;1.17;;;0.70;;
2289;SDS011;1153;47.986;7.898;2023-04-03T05:14:15;0.90;;;0.67;;
2289;SDS011;1153;47.986;7.898;2023-04-03T05:16:41;1.00;;;0.70;;
2289;SDS011;1153;47.986;7.898;2023-04-03T05:19:06;0.90;;;0.70;;
2289;SDS011;1153;47.986;7.898;2023-04-03T05:21:31;1.40;;;1.00;;
2289;SDS011;1153;47.986;7.898;2023-04-03T05:23:58;1.10;;;0.80;;
2289;SDS011;1153;47.986;7.898;2023-04-03T05:26:23;0.90;;;0.60;;
2289;SDS011;1153;47.986;7.898;2023-04-03T05:28:48;1.00;;;0.80;;
2289;SDS011;1153;47.986;7.898;2023-04-03T05:31:13;1.00;;;0.87;;
2289;SDS011;1153;47.986;7.898;2023-04-03T05:33:38;0.90;;;0.70;;
2289;SDS011;1153;47.986;7.898;2023-04-03T05:36:04;1.20;;;0.80;;
2289;SDS011;1153;47.986;7.898;2023-04-03T05:38:30;1.00;;;0.70;;
2289;SDS011;1153;47.986;7.898;2023-04-03T05:40:55;1.20;;;1.03;;
2289;SDS011;1153;47.986;7.898;2023-04-03T05:43:20;1.20;;;0.70;;
2289;SDS011;1153;47.986;7.898;2023-04-03T05:45:46;1.00;;;0.90;;
2289;SDS011;1153;47.986;7.898;2023-04-03T05:48:12;1.37;;;0.80;;
2289;SDS011;1153;47.986;7.898;2023-04-03T05:50:37;1.00;;;0.70;;
2289;SDS011;1153;47.986;7.898;2023-04-03T05:53:06;1.20;;;1.00;;
2289;SDS011;1153;47.986;7.898;2023-04-03T05:55:32;1.00;;;0.80;;
2289;SDS011;1153;47.986;7.898;2023-04-03T05:57:57;0.90;;;0.60;;
2289;SDS011;1153;47.986;7.898;2023-04-03T06:00:22;1.20;;;1.00;;
2289;SDS011;1153;47.986;7.898;2023-04-03T06:02:47;1.60;;;1.43;;
2289;SDS011;1153;47.986;7.898;2023-04-03T06:05:12;1.30;;;1.20;;
2289;SDS011;1153;47.986;7.898;2023-04-03T06:07:39;1.30;;;1.20;;
2289;SDS011;1153;47.986;7.898;2023-04-03T06:10:04;1.10;;;0.90;;
2289;SDS011;1153;47.986;7.898;2023-04-03T06:12:30;0.90;;;0.70;;
2289;SDS011;1153;47.986;7.898;2023-04-03T06:14:55;1.00;;;0.90;;
2289;SDS011;1153;47.986;7.898;2023-04-03T06:17:20;1.47;;;0.93;;
2289;SDS011;1153;47.986;7.898;2023-04-03T06:19:46;1.10;;;0.83;;
2289;SDS011;1153;47.986;7.898;2023-04-03T06:22:11;1.00;;;0.90;;
2289;SDS011;1153;47.986;7.898;2023-04-03T06:24:36;1.00;;;0.83;;
2289;SDS011;1153;47.986;7.898;2023-04-03T06:27:02;1.13;;;1.00;;
2289;SDS011;1153;47.986;7.898;2023-04-03T06:29:28;1.07;;;0.80;;
2289;SDS011;1153;47.986;7.898;2023-04-03T06:31:53;1.10;;;0.80;;
2289;SDS011;1153;47.986;7.898;2023-04-03T06:34:18;1.00;;;0.80;;
2289;SDS011;1153;47.986;7.898;2023-04-03T06:36:43;1.20;;;0.83;;
2289;SDS011;1153;47.986;7.898;2023-04-03T06:39:13;1.77;;;1.67;;
2289;SDS011;1153;47.986;7.898;2023-04-03T06:41:39;1.20;;;1.00;;
2289;SDS011;1153;47.986;7.898;2023-04-03T06:44:06;3.60;;;2.90;;
2289;SDS011;1153;47.986;7.898;2023-04-03T06:46:31;1.93;;;1.27;;
2289;SDS011;1153;47.986;7.898;2023-04-03T06:48:56;1.03;;;0.93;;
2289;SDS011;1153;47.986;7.898;2023-04-03T06:51:25;0.93;;;0.77;;
2289;SDS011;1153;47.986;7.898;2023-04-03T06:53:52;1.10;;;1.00;;
2289;SDS011;1153;47.986;7.898;2023-04-03T06:56:18;1.53;;;0.93;;
2289;SDS011;1153;47.986;7.898;2023-04-03T06:58:43;1.00;;;0.90;;
2289;SDS011;1153;47.986;7.898;2023-04-03T07:01:09;0.87;;;0.60;;
2289;SDS011;1153;47.986;7.898;2023-04-03T07:03:36;1.10;;;0.90;;
2289;SDS011;1153;47.986;7.898;2023-04-03T07:06:01;1.23;;;0.90;;
2289;SDS011;1153;47.986;7.898;2023-04-03T07:08:26;1.07;;;0.73;;
2289;SDS011;1153;47.986;7.898;2023-04-03T07:10:52;0.90;;;0.60;;
2289;SDS011;1153;47.986;7.898;2023-04-03T07:13:17;1.13;;;1.03;;
2289;SDS011;1153;47.986;7.898;2023-04-03T07:15:42;0.90;;;0.70;;
2289;SDS011;1153;47.986;7.898;2023-04-03T07:18:07;0.90;;;0.70;;
2289;SDS011;1153;47.986;7.898;2023-04-03T07:20:32;1.37;;;0.93;;
2289;SDS011;1153;47.986;7.898;2023-04-03T07:22:58;1.60;;;0.70;;
2289;SDS011;1153;47.986;7.898;2023-04-03T07:25:23;0.97;;;0.77;;
2289;SDS011;1153;47.986;7.898;2023-04-03T07:27:48;2.90;;;1.77;;
2289;SDS011;1153;47.986;7.898;2023-04-03T07:30:14;1.70;;;1.60;;
2289;SDS011;1153;47.986;7.898;2023-04-03T07:32:39;1.40;;;1.20;;
2289;SDS011;1153;47.986;7.898;2023-04-03T07:35:05;3.73;;;1.53;;
2289;SDS011;1153;47.986;7.898;2023-04-03T07:37:30;1.40;;;1.30;;
2289;SDS011;1153;47.986;7.898;2023-04-03T07:39:57;1.23;;;1.13;;
2289;SDS011;1153;47.986;7.898;2023-04-03T07:42:23;1.30;;;1.20;;
2289;SDS011;1153;47.986;7.898;2023-04-03T07:57:07;1.93;;;1.83;;
2289;SDS011;1153;47.986;7.898;2023-04-03T07:59:32;1.80;;;1.70;;
2289;SDS011;1153;47.986;7.898;2023-04-03T08:01:57;3.10;;;1.90;;
2289;SDS011;1153;47.986;7.898;2023-04-03T08:04:23;1.33;;;1.20;;
2289;SDS011;1153;47.986;7.898;2023-04-03T08:06:48;1.33;;;1.23;;
2289;SDS011;1153;47.986;7.898;2023-04-03T08:09:14;1.47;;;1.37;;
2289;SDS011;1153;47.986;7.898;2023-04-03T08:11:40;1.67;;;1.57;;
2289;SDS011;1153;47.986;7.898;2023-04-03T08:14:05;2.07;;;1.90;;
2289;SDS011;1153;47.986;7.898;2023-04-03T08:16:30;2.20;;;1.83;;
2289;SDS011;1153;47.986;7.898;2023-04-03T08:18:55;2.73;;;2.60;;
2289;SDS011;1153;47.986;7.898;2023-04-03T08:21:21;2.13;;;2.03;;
2289;SDS011;1153;47.986;7.898;2023-04-03T08:23:47;2.87;;;2.73;;
2289;SDS011;1153;47.986;7.898;2023-04-03T08:26:14;1.87;;;1.77;;
2289;SDS011;1153;47.986;7.898;2023-04-03T08:28:43;2.40;;;2.30;;
2289;SDS011;1153;47.986;7.898;2023-04-03T08:31:10;2.67;;;2.47;;
2289;SDS011;1153;47.986;7.898;2023-04-03T08:33:37;2.17;;;1.97;;
2289;SDS011;1153;47.986;7.898;2023-04-03T08:36:24;2.80;;;2.60;;
2289;SDS011;1153;47.986;7.898;2023-04-03T08:38:48;3.30;;;3.10;;
2289;SDS011;1153;47.986;7.898;2023-04-03T08:44:03;2.37;;;2.17;;
2289;SDS011;1153;47.986;7.898;2023-04-03T08:46:32;1.93;;;1.47;;
2289;SDS011;1153;47.986;7.898;2023-04-03T08:49:00;3.20;;;1.70;;
2289;SDS011;1153;47.986;7.898;2023-04-03T08:51:26;2.80;;;2.40;;
2289;SDS011;1153;47.986;7.898;2023-04-03T08:53:57;10.93;;;2.00;;
2289;SDS011;1153;47.986;7.898;2023-04-03T08:56:24;2.37;;;2.23;;
2289;SDS011;1153;47.986;7.898;2023-04-03T08:58:52;1.90;;;1.80;;
2289;SDS011;1153;47.986;7.898;2023-04-03T09:01:26;2.10;;;1.90;;
2289;SDS011;1153;47.986;7.898;2023-04-03T09:03:52;2.97;;;2.80;;
2289;SDS011;1153;47.986;7.898;2023-04-03T09:06:21;2.60;;;1.73;;
2289;SDS011;1153;47.986;7.898;2023-04-03T09:14:02;1.90;;;1.80;;
2289;SDS011;1153;47.986;7.898;2023-04-03T09:21:49;1.83;;;1.73;;
2289;SDS011;1153;47.986;7.898;2023-04-03T09:24:15;2.47;;;2.37;;
2289;SDS011;1153;47.986;7.898;2023-04-03T09:26:46;2.00;;;1.90;;
2289;SDS011;1153;47.986;7.898;2023-04-03T09:29:23;2.27;;;2.17;;
2289;SDS011;1153;47.986;7.898;2023-04-03T09:31:50;1.87;;;1.77;;
2289;SDS011;1153;47.986;7.898;2023-04-03T09:34:20;1.40;;;1.30;;
2289;SDS011;1153;47.986;7.898;2023-04-03T09:36:48;1.87;;;1.33;;
2289;SDS011;1153;47.986;7.898;2023-04-03T09:39:18;1.43;;;1.33;;
2289;SDS011;1153;47.986;7.898;2023-04-03T09:44:23;1.47;;;1.37;;
2289;SDS011;1153;47.986;7.898;2023-04-03T09:46:48;1.40;;;1.30;;
2289;SDS011;1153;47.986;7.898;2023-04-03T09:49:14;1.97;;;1.40;;
2289;SDS011;1153;47.986;7.898;2023-04-03T09:51:39;1.20;;;0.97;;
2289;SDS011;1153;47.986;7.898;2023-04-03T09:56:50;0.90;;;0.80;;
2289;SDS011;1153;47.986;7.898;2023-04-03T09:59:16;3.00;;;1.50;;
2289;SDS011;1153;47.986;7.898;2023-04-03T10:01:42;2.13;;;1.00;;
2289;SDS011;1153;47.986;7.898;2023-04-03T10:06:33;1.40;;;1.00;;
2289;SDS011;1153;47.986;7.898;2023-04-03T10:09:15;0.90;;;0.70;;
2289;SDS011;1153;47.986;7.898;2023-04-03T10:11:56;1.10;;;1.00;;
2289;SDS011;1153;47.986;7.898;2023-04-03T10:14:22;1.27;;;1.00;;
2289;SDS011;1153;47.986;7.898;2023-04-03T10:16:48;1.10;;;0.87;;
2289;SDS011;1153;47.986;7.898;2023-04-03T10:29:50;2.77;;;0.83;;
2289;SDS011;1153;47.986;7.898;2023-04-03T10:37:49;1.63;;;0.70;;
2289;SDS011;1153;47.986;7.898;2023-04-03T10:43:08;1.10;;;0.80;;
2289;SDS011;1153;47.986;7.898;2023-04-03T10:45:56;1.30;;;1.20;;
2289;SDS011;1153;47.986;7.898;2023-04-03T10:48:40;2.00;;;0.80;;
2289;SDS011;1153;47.986;7.898;2023-04-03T10:51:14;1.00;;;0.83;;
2289;SDS011;1153;47.986;7.898;2023-04-03T10:56:32;0.97;;;0.60;;
2289;SDS011;1153;47.986;7.898;2023-04-03T11:01:35;1.77;;;1.40;;
2289;SDS011;1153;47.986;7.898;2023-04-03T11:04:03;1.10;;;0.90;;
2289;SDS011;1153;47.986;7.898;2023-04-03T11:06:48;1.10;;;0.90;;
2289;SDS011;1153;47.986;7.898;2023-04-03T11:09:23;1.00;;;0.67;;
2289;SDS011;1153;47.986;7.898;2023-04-03T11:11:51;1.40;;;1.00;;
2289;SDS011;1153;47.986;7.898;2023-04-03T11:14:21;1.20;;;0.73;;
2289;SDS011;1153;47.986;7.898;2023-04-03T11:16:53;1.10;;;1.00;;
2289;SDS011;1153;47.986;7.898;2023-04-03T11:19:21;0.90;;;0.80;;
2289;SDS011;1153;47.986;7.898;2023-04-03T11:22:01;1.20;;;1.10;;
2289;SDS011;1153;47.986;7.898;2023-04-03T11:24:29;1.73;;;0.80;;
2289;SDS011;1153;47.986;7.898;2023-04-03T11:26:56;4.30;;;1.13;;
2289;SDS011;1153;47.986;7.898;2023-04-03T11:29:24;1.20;;;1.10;;
2289;SDS011;1153;47.986;7.898;2023-04-03T11:36:57;1.60;;;1.50;;
2289;SDS011;1153;47.986;7.898;2023-04-03T11:42:12;1.20;;;0.83;;
2289;SDS011;1153;47.986;7.898;2023-04-03T11:44:38;1.40;;;1.23;;
2289;SDS011;1153;47.986;7.898;2023-04-03T11:47:07;2.47;;;1.40;;
2289;SDS011;1153;47.986;7.898;2023-04-03T11:55:02;1.30;;;1.00;;
2289;SDS011;1153;47.986;7.898;2023-04-03T11:57:43;1.10;;;1.00;;
2289;SDS011;1153;47.986;7.898;2023-04-03T12:02:53;0.93;;;0.80;;
2289;SDS011;1153;47.986;7.898;2023-04-03T12:05:26;0.90;;;0.67;;
2289;SDS011;1153;47.986;7.898;2023-04-03T12:08:15;1.20;;;1.03;;
2289;SDS011;1153;47.986;7.898;2023-04-03T12:10:37;2.03;;;1.63;;
2289;SDS011;1153;47.986;7.898;2023-04-03T12:13:12;3.93;;;1.00;;
2289;SDS011;1153;47.986;7.898;2023-04-03T12:28:38;1.50;;;0.87;;
2289;SDS011;1153;47.986;7.898;2023-04-03T12:31:05;1.33;;;1.20;;
2289;SDS011;1153;47.986;7.898;2023-04-03T12:34:16;1.37;;;1.27;;
2289;SDS011;1153;47.986;7.898;2023-04-03T12:36:28;1.47;;;1.37;;
2289;SDS011;1153;47.986;7.898;2023-04-03T12:41:37;1.23;;;1.13;;
2289;SDS011;1153;47.986;7.898;2023-04-03T12:46:41;2.60;;;2.40;;
2289;SDS011;1153;47.986;7.898;2023-04-03T12:51:51;1.10;;;1.00;;
2289;SDS011;1153;47.986;7.898;2023-04-03T12:54:18;2.77;;;1.10;;
2289;SDS011;1153;47.986;7.898;2023-04-03T12:56:44;1.77;;;1.67;;
2289;SDS011;1153;47.986;7.898;2023-04-03T12:59:14;1.30;;;1.20;;
2289;SDS011;1153;47.986;7.898;2023-04-03T13:01:41;1.50;;;1.40;;
2289;SDS011;1153;47.986;7.898;2023-04-03T13:04:06;1.47;;;1.37;;
2289;SDS011;1153;47.986;7.898;2023-04-03T13:06:33;1.47;;;1.33;;
2289;SDS011;1153;47.986;7.898;2023-04-03T13:09:00;1.20;;;1.10;;
2289;SDS011;1153;47.986;7.898;2023-04-03T13:11:26;1.73;;;1.20;;
2289;SDS011;1153;47.986;7.898;2023-04-03T13:16:20;1.37;;;1.27;;
2289;SDS011;1153;47.986;7.898;2023-04-03T13:18:50;1.27;;;1.17;;
2289;SDS011;1153;47.986;7.898;2023-04-03T13:21:17;1.17;;;1.07;;
2289;SDS011;1153;47.986;7.898;2023-04-03T13:23:44;5.03;;;1.00;;
2289;SDS011;1153;47.986;7.898;2023-04-03T13:26:10;1.03;;;0.93;;
2289;SDS011;1153;47.986;7.898;2023-04-03T13:28:36;1.40;;;1.30;;
2289;SDS011;1153;47.986;7.898;2023-04-03T13:33:28;1.37;;;1.00;;
2289;SDS011;1153;47.986;7.898;2023-04-03T13:35:55;1.10;;;1.00;;
2289;SDS011;1153;47.986;7.898;2023-04-03T13:38:28;1.07;;;0.97;;
2289;SDS011;1153;47.986;7.898;2023-04-03T13:40:57;0.90;;;0.80;;
2289;SDS011;1153;47.986;7.898;2023-04-03T13:43:26;1.30;;;1.20;;
2289;SDS011;1153;47.986;7.898;2023-04-03T13:48:20;1.77;;;1.27;;
2289;SDS011;1153;47.986;7.898;2023-04-03T13:51:29;1.20;;;0.90;;
2289;SDS011;1153;47.986;7.898;2023-04-03T13:53:41;1.17;;;1.07;;
2289;SDS011;1153;47.986;7.898;2023-04-03T13:56:08;1.10;;;1.00;;
2289;SDS011;1153;47.986;7.898;2023-04-03T13:58:34;1.00;;;0.90;;
2289;SDS011;1153;47.986;7.898;2023-04-03T14:03:28;1.23;;;1.13;;
2289;SDS011;1153;47.986;7.898;2023-04-03T14:05:54;1.00;;;0.87;;
2289;SDS011;1153;47.986;7.898;2023-04-03T14:08:19;4.00;;;1.50;;
2289;SDS011;1153;47.986;7.898;2023-04-03T14:10:44;1.40;;;1.30;;
2289;SDS011;1153;47.986;7.898;2023-04-03T14:13:11;1.17;;;0.90;;
2289;SDS011;1153;47.986;7.898;2023-04-03T14:15:37;1.27;;;1.10;;
2289;SDS011;1153;47.986;7.898;2023-04-03T14:18:03;1.00;;;0.83;;
2289;SDS011;1153;47.986;7.898;2023-04-03T14:20:28;1.03;;;0.93;;
2289;SDS011;1153;47.986;7.898;2023-04-03T14:22:53;3.27;;;1.73;;
2289;SDS011;1153;47.986;7.898;2023-04-03T14:25:19;2.17;;;2.07;;
2289;SDS011;1153;47.986;7.898;2023-04-03T14:27:45;2.00;;;1.60;;
2289;SDS011;1153;47.986;7.898;2023-04-03T14:30:16;1.57;;;0.90;;
2289;SDS011;1153;47.986;7.898;2023-04-03T14:32:42;0.90;;;0.70;;
2289;SDS011;1153;47.986;7.898;2023-04-03T14:35:07;1.93;;;0.77;;
2289;SDS011;1153;47.986;7.898;2023-04-03T14:37:32;1.13;;;0.87;;
2289;SDS011;1153;47.986;7.898;2023-04-03T14:39:59;1.30;;;1.20;;
2289;SDS011;1153;47.986;7.898;2023-04-03T14:42:34;1.50;;;1.30;;
2289;SDS011;1153;47.986;7.898;2023-04-03T14:45:00;1.30;;;1.20;;
2289;SDS011;1153;47.986;7.898;2023-04-03T14:47:26;1.83;;;0.60;;
2289;SDS011;1153;47.986;7.898;2023-04-03T14:49:52;1.40;;;1.03;;
2289;SDS011;1153;47.986;7.898;2023-04-03T14:52:25;1.07;;;0.90;;
2289;SDS011;1153;47.986;7.898;2023-04-03T14:54:51;1.20;;;1.10;;
2289;SDS011;1153;47.986;7.898;2023-04-03T14:57:17;1.50;;;1.37;;
2289;SDS011;1153;47.986;7.898;2023-04-03T14:59:43;1.23;;;0.97;;
2289;SDS011;1153;47.986;7.898;2023-04-03T15:04:52;1.73;;;1.03;;
2289;SDS011;1153;47.986;7.898;2023-04-03T15:07:18;1.00;;;0.90;;
2289;SDS011;1153;47.986;7.898;2023-04-03T15:09:43;3.37;;;1.10;;
2289;SDS011;1153;47.986;7.898;2023-04-03T15:12:08;1.97;;;1.00;;
2289;SDS011;1153;47.986;7.898;2023-04-03T15:14:34;0.90;;;0.80;;
2289;SDS011;1153;47.986;7.898;2023-04-03T15:16:59;1.20;;;1.00;;
2289;SDS011;1153;47.986;7.898;2023-04-03T15:19:25;1.40;;;0.87;;
2289;SDS011;1153;47.986;7.898;2023-04-03T15:21:50;2.07;;;1.87;;
2289;SDS011;1153;47.986;7.898;2023-04-03T15:24:15;0.80;;;0.70;;
2289;SDS011;1153;47.986;7.898;2023-04-03T15:26:41;1.37;;;1.27;;
2289;SDS011;1153;47.986;7.898;2023-04-03T15:29:06;1.27;;;1.17;;
2289;SDS011;1153;47.986;7.898;2023-04-03T15:31:31;1.10;;;1.00;;
2289;SDS011;1153;47.986;7.898;2023-04-03T15:33:57;3.70;;;0.70;;
2289;SDS011;1153;47.986;7.898;2023-04-03T15:36:22;1.33;;;1.23;;
2289;SDS011;1153;47.986;7.898;2023-04-03T15:38:47;1.20;;;1.10;;
2289;SDS011;1153;47.986;7.898;2023-04-03T15:41:13;2.10;;;1.70;;
2289;SDS011;1153;47.986;7.898;2023-04-03T15:43:38;1.40;;;0.80;;
2289;SDS011;1153;47.986;7.898;2023-04-03T15:46:03;1.07;;;0.87;;
2289;SDS011;1153;47.986;7.898;2023-04-03T15:48:28;1.03;;;0.87;;
2289;SDS011;1153;47.986;7.898;2023-04-03T15:50:54;0.80;;;0.63;;
2289;SDS011;1153;47.986;7.898;2023-04-03T15:53:19;1.53;;;1.43;;
2289;SDS011;1153;47.986;7.898;2023-04-03T15:55:44;1.77;;;0.90;;
2289;SDS011;1153;47.986;7.898;2023-04-03T15:58:10;1.23;;;0.97;;
2289;SDS011;1153;47.986;7.898;2023-04-03T16:00:36;5.10;;;1.57;;
2289;SDS011;1153;47.986;7.898;2023-04-03T16:03:04;1.87;;;0.97;;
2289;SDS011;1153;47.986;7.898;2023-04-03T16:05:30;1.77;;;1.13;;
2289;SDS011;1153;47.986;7.898;2023-04-03T16:07:55;1.47;;;0.93;;
2289;SDS011;1153;47.986;7.898;2023-04-03T16:10:21;0.80;;;0.70;;
2289;SDS011;1153;47.986;7.898;2023-04-03T16:12:47;1.13;;;1.03;;
2289;SDS011;1153;47.986;7.898;2023-04-03T16:15:12;1.30;;;0.70;;
2289;SDS011;1153;47.986;7.898;2023-04-03T16:17:37;1.10;;;0.70;;
2289;SDS011;1153;47.986;7.898;2023-04-03T16:20:03;1.50;;;1.37;;
2289;SDS011;1153;47.986;7.898;2023-04-03T16:22:29;1.27;;;0.70;;
2289;SDS011;1153;47.986;7.898;2023-04-03T16:24:54;3.20;;;1.07;;
2289;SDS011;1153;47.986;7.898;2023-04-03T16:27:20;5.03;;;1.00;;
2289;SDS011;1153;47.986;7.898;2023-04-03T16:29:45;1.20;;;0.83;;
2289;SDS011;1153;47.986;7.898;2023-04-03T16:32:11;1.00;;;0.70;;
2289;SDS011;1153;47.986;7.898;2023-04-03T16:34:36;2.43;;;1.00;;
2289;SDS011;1153;47.986;7.898;2023-04-03T16:37:02;1.20;;;0.70;;
2289;SDS011;1153;47.986;7.898;2023-04-03T16:39:27;0.83;;;0.73;;
2289;SDS011;1153;47.986;7.898;2023-04-03T16:41:52;1.10;;;0.80;;
2289;SDS011;1153;47.986;7.898;2023-04-03T16:44:17;1.13;;;1.00;;
2289;SDS011;1153;47.986;7.898;2023-04-03T16:46:43;4.83;;;1.20;;
2289;SDS011;1153;47.986;7.898;2023-04-03T16:49:08;1.20;;;1.00;;
2289;SDS011;1153;47.986;7.898;2023-04-03T16:51:33;0.93;;;0.83;;
2289;SDS011;1153;47.986;7.898;2023-04-03T16:53:58;1.67;;;1.23;;
2289;SDS011;1153;47.986;7.898;2023-04-03T16:56:24;1.30;;;0.80;;
2289;SDS011;1153;47.986;7.898;2023-04-03T16:58:51;1.77;;;0.70;;
2289;SDS011;1153;47.986;7.898;2023-04-03T17:01:17;0.97;;;0.87;;
2289;SDS011;1153;47.986;7.898;2023-04-03T17:03:43;0.90;;;0.77;;
2289;SDS011;1153;47.986;7.898;2023-04-03T17:06:09;1.27;;;1.17;;